Time;durP1;ratioP1;P1;durP2;ratioP2;P2;SDS_P1;SDS_P2;PMS_P1;PMS_P2;Temp;Humidity;BMP_temperature;BMP_pressure;BME280_temperature;BME280_humidity;BME280_pressure;Samples;Min_cycle;Max_cycle;Signal;HPM_P1;HPM_P2
2023/10/01 00:00:57;;;;;;;2.03;0.85;;;;;;;15.90;64.42;94963.75;5070830;28;20510;-78
2023/10/01 00:03:24;;;;;;;0.73;0.73;;;;;;;15.96;64.00;94965.06;5070536;28;20231;-78
2023/10/01 00:05:52;;;;;;;0.20;0.20;;;;;;;15.97;63.92;94966.66;5071029;28;20203;-80
2023/10/01 00:08:19;;;;;;;0.38;0.30;;;;;;;15.95;64.03;94955.28;5070033;28;20753;-78
2023/10/01 00:10:48;;;;;;;0.28;0.28;;;;;;;15.86;64.31;94953.84;5070562;28;20772;-79
2023/10/01 00:13:15;;;;;;;0.30;0.30;;;;;;;15.75;64.89;94958.28;5070755;28;20676;-79
2023/10/01 00:15:42;;;;;;;1.08;0.50;;;;;;;15.75;64.49;94961.00;5070405;28;20203;-79
2023/10/01 00:18:09;;;;;;;0.30;0.30;;;;;;;15.70;65.04;94953.09;5069560;28;20195;-79
2023/10/01 00:20:36;;;;;;;0.32;0.32;;;;;;;15.66;64.85;94955.72;5070025;28;20210;-78
2023/10/01 00:23:04;;;;;;;0.38;0.38;;;;;;;15.62;65.26;94944.69;5070281;28;20296;-79
2023/10/01 00:25:35;;;;;;;0.28;0.28;;;;;;;15.57;65.01;94957.84;5069813;28;20287;-79
2023/10/01 00:28:04;;;;;;;0.20;0.20;;;;;;;15.41;65.50;94949.59;5070081;28;20306;-79
2023/10/01 00:30:32;;;;;;;0.20;0.20;;;;;;;15.36;65.87;94947.09;5069666;28;20203;-78
2023/10/01 00:32:59;;;;;;;0.20;0.20;;;;;;;15.32;66.28;94957.13;5070090;28;20276;-80
2023/10/01 00:35:26;;;;;;;1.17;0.85;;;;;;;15.22;67.51;94952.97;5070558;28;20206;-80
2023/10/01 00:37:53;;;;;;;0.32;0.32;;;;;;;15.14;68.55;94955.88;5070467;28;20246;-79
2023/10/01 00:40:22;;;;;;;0.30;0.30;;;;;;;15.19;67.45;94950.16;5070358;28;20214;-79
2023/10/01 00:42:49;;;;;;;0.30;0.30;;;;;;;15.37;66.80;94945.97;5069788;28;20223;-79
2023/10/01 00:45:16;;;;;;;1.00;0.63;;;;;;;15.31;66.95;94950.09;5070565;28;20203;-79
2023/10/01 00:47:44;;;;;;;0.38;0.38;;;;;;;15.31;66.93;94949.31;5070304;28;20552;-79
2023/10/01 00:50:15;;;;;;;0.55;0.55;;;;;;;15.37;66.21;94943.25;5070110;28;20607;-79
2023/10/01 00:52:43;;;;;;;0.20;0.20;;;;;;;15.34;66.15;94943.94;5069940;28;20195;-79
2023/10/01 00:55:11;;;;;;;0.35;0.35;;;;;;;15.40;66.04;94947.22;5070207;28;20206;-79
2023/10/01 00:57:39;;;;;;;1.95;1.52;;;;;;;15.31;66.29;94944.63;5069997;28;20215;-79
2023/10/01 01:00:13;;;;;;;1.85;0.80;;;;;;;15.30;66.17;94943.06;5070003;28;20207;-80
2023/10/01 01:02:46;;;;;;;1.95;1.40;;;;;;;15.16;66.56;94946.19;5070196;28;20264;-79
2023/10/01 01:05:23;;;;;;;2.45;1.65;;;;;;;15.19;66.10;94941.97;5052964;28;20226;-79
2023/10/01 01:07:50;;;;;;;1.40;1.20;;;;;;;15.22;66.11;94936.59;5070042;28;20286;-79
2023/10/01 01:10:18;;;;;;;3.40;1.65;;;;;;;15.17;65.97;94938.81;5069886;28;20298;-79
2023/10/01 01:12:47;;;;;;;1.83;1.60;;;;;;;15.23;66.06;94940.13;5069322;28;20202;-78
2023/10/01 01:15:14;;;;;;;1.85;1.35;;;;;;;15.26;65.81;94942.16;5070149;28;20213;-79
2023/10/01 01:17:41;;;;;;;0.30;0.30;;;;;;;15.19;66.16;94947.41;5070067;28;20214;-79
2023/10/01 01:20:13;;;;;;;0.30;0.28;;;;;;;15.04;66.90;94939.97;5070326;28;20578;-79
2023/10/01 01:22:49;;;;;;;0.20;0.20;;;;;;;14.99;67.22;94942.97;5069290;28;20219;-79
2023/10/01 01:25:20;;;;;;;0.10;0.10;;;;;;;14.89;67.79;94938.81;5070090;28;20194;-79
2023/10/01 01:27:47;;;;;;;0.20;0.20;;;;;;;14.81;68.56;94942.47;5070011;28;20191;-79
2023/10/01 01:30:19;;;;;;;0.47;0.40;;;;;;;14.68;69.61;94941.72;5069093;28;20207;-79
2023/10/01 01:32:47;;;;;;;0.17;0.17;;;;;;;14.56;71.04;94944.47;5069622;28;20290;-78
2023/10/01 01:35:15;;;;;;;1.20;0.50;;;;;;;14.32;72.50;94952.69;5069273;28;20551;-79
2023/10/01 01:37:47;;;;;;;0.40;0.40;;;;;;;14.09;74.06;94947.69;5069457;28;20293;-79
2023/10/01 01:40:24;;;;;;;2.88;1.48;;;;;;;13.97;75.10;94944.97;5069553;28;20210;-79
2023/10/01 01:42:52;;;;;;;2.20;1.75;;;;;;;13.83;75.82;94942.59;5070067;28;20210;-79
2023/10/01 01:45:20;;;;;;;1.80;1.38;;;;;;;13.69;76.70;94952.22;5069951;28;20209;-79
2023/10/01 01:47:46;;;;;;;0.47;0.47;;;;;;;13.62;77.02;94941.91;5072810;28;20240;-79
2023/10/01 01:50:19;;;;;;;0.75;0.50;;;;;;;13.57;77.49;94944.03;5077186;28;20218;-79
2023/10/01 01:52:49;;;;;;;3.10;1.95;;;;;;;13.48;77.63;94952.31;5070234;28;20195;-79
2023/10/01 01:55:30;;;;;;;3.95;1.90;;;;;;;13.46;77.82;94949.94;5070005;28;20503;-80
2023/10/01 01:58:06;;;;;;;3.70;2.10;;;;;;;13.35;78.40;94948.78;5069858;28;20234;-79
2023/10/01 02:00:34;;;;;;;2.97;2.13;;;;;;;13.39;77.87;94946.97;5069895;28;20187;-79
2023/10/01 02:03:10;;;;;;;1.92;1.60;;;;;;;13.39;78.25;94944.25;5069365;28;20297;-79
2023/10/01 02:05:38;;;;;;;3.00;2.15;;;;;;;13.26;78.58;94945.34;5069255;28;20233;-78
2023/10/01 02:08:09;;;;;;;2.08;1.60;;;;;;;13.27;79.10;94951.59;5069522;28;20295;-79
2023/10/01 02:10:44;;;;;;;6.43;2.42;;;;;;;13.23;79.42;94935.16;5068797;28;20239;-78
2023/10/01 02:13:16;;;;;;;2.65;2.03;;;;;;;13.13;80.20;94949.94;5053180;28;20210;-79
2023/10/01 02:15:45;;;;;;;5.43;2.20;;;;;;;13.13;80.10;94946.41;5069450;28;20207;-79
2023/10/01 02:18:16;;;;;;;0.17;0.17;;;;;;;13.08;80.46;94941.19;5069496;28;20199;-80
2023/10/01 02:20:44;;;;;;;0.52;0.35;;;;;;;12.99;80.90;94935.03;5069907;28;20205;-80
2023/10/01 02:23:13;;;;;;;0.10;0.10;;;;;;;12.89;81.52;94951.78;5069542;28;20223;-79
2023/10/01 02:25:46;;;;;;;4.22;0.70;;;;;;;12.82;82.11;94947.69;5069719;28;20706;-80
2023/10/01 02:28:15;;;;;;;1.13;0.90;;;;;;;12.79;82.73;94945.63;5069618;28;20192;-80
2023/10/01 02:30:44;;;;;;;0.60;0.60;;;;;;;12.84;82.89;94943.84;5069387;28;20210;-80
2023/10/01 02:33:18;;;;;;;1.42;0.70;;;;;;;12.70;83.55;94939.47;5069608;28;20290;-79
2023/10/01 02:35:49;;;;;;;1.45;0.95;;;;;;;12.60;83.45;94939.88;5069661;28;20218;-79
2023/10/01 02:38:40;;;;;;;1.40;1.13;;;;;;;12.57;83.46;94950.63;5069632;28;20195;-79
2023/10/01 02:41:09;;;;;;;0.70;0.70;;;;;;;12.54;84.45;94941.22;5072670;28;20191;-80
2023/10/01 02:43:41;;;;;;;0.20;0.20;;;;;;;12.56;84.24;94944.41;5072984;28;20241;-79
2023/10/01 02:46:09;;;;;;;0.80;0.80;;;;;;;12.49;83.95;94933.25;5073024;28;20203;-80
2023/10/01 02:48:37;;;;;;;0.68;0.68;;;;;;;12.48;84.63;94944.44;5082924;28;20202;-80
2023/10/01 02:51:14;;;;;;;1.80;0.75;;;;;;;12.41;85.29;94942.28;5073236;28;20199;-79
2023/10/01 02:54:01;;;;;;;0.77;0.70;;;;;;;12.45;85.06;94943.19;5072828;28;20248;-79
2023/10/01 02:56:27;;;;;;;0.30;0.30;;;;;;;12.45;84.76;94941.25;5072753;28;20229;-79
2023/10/01 02:58:54;;;;;;;0.40;0.40;;;;;;;12.40;84.61;94940.69;5073197;28;20294;-79
2023/10/01 03:01:21;;;;;;;0.57;0.57;;;;;;;12.33;85.35;94941.19;5072503;28;20632;-78
2023/10/01 03:03:47;;;;;;;0.50;0.50;;;;;;;12.36;85.40;94942.44;5071130;28;20682;-79
2023/10/01 03:06:14;;;;;;;3.17;1.83;;;;;;;12.30;85.70;94935.66;5072434;28;20207;-79
2023/10/01 03:08:59;;;;;;;0.30;0.30;;;;;;;12.27;86.76;94941.72;5072591;28;20210;-79
2023/10/01 03:11:26;;;;;;;0.68;0.68;;;;;;;12.25;87.48;94935.81;5069267;28;20235;-79
2023/10/01 03:13:54;;;;;;;0.47;0.35;;;;;;;12.19;87.32;94939.84;5069007;28;20241;-79
2023/10/01 03:16:40;;;;;;;1.05;1.00;;;;;;;12.14;87.37;94942.78;5068908;28;20195;-78
2023/10/01 03:19:18;;;;;;;0.40;0.40;;;;;;;12.12;87.54;94934.16;5071133;28;20276;-79
2023/10/01 03:24:32;;;;;;;0.47;0.47;;;;;;;12.04;87.52;94944.72;5063743;28;20691;-79
2023/10/01 03:27:12;;;;;;;0.43;0.43;;;;;;;12.06;87.58;94942.50;5066616;28;20635;-79
2023/10/01 03:29:42;;;;;;;0.50;0.50;;;;;;;12.20;87.25;94942.25;5064883;28;20210;-78
2023/10/01 03:34:52;;;;;;;0.22;0.22;;;;;;;12.00;89.19;94948.44;5062041;28;20213;-78
2023/10/01 03:37:20;;;;;;;0.22;0.22;;;;;;;12.00;88.63;94941.09;5063384;28;20647;-78
2023/10/01 03:39:50;;;;;;;0.20;0.20;;;;;;;12.00;88.55;94943.81;5069834;28;20203;-79
2023/10/01 03:42:18;;;;;;;4.05;2.42;;;;;;;12.00;88.32;94954.69;5070627;28;20238;-79
2023/10/01 03:45:19;;;;;;;3.67;2.10;;;;;;;12.00;88.01;94960.09;5072384;28;20214;-79
2023/10/01 03:47:50;;;;;;;0.28;0.28;;;;;;;11.96;88.29;94956.44;5072205;28;20194;-79
2023/10/01 03:50:20;;;;;;;0.60;0.60;;;;;;;11.99;87.80;94958.50;5072419;28;20545;-79
2023/10/01 03:52:52;;;;;;;1.17;0.77;;;;;;;11.88;88.08;94954.59;5072095;28;20207;-79
2023/10/01 03:55:27;;;;;;;0.35;0.35;;;;;;;11.94;87.71;94960.59;5054200;28;20199;-77
2023/10/01 03:57:56;;;;;;;0.35;0.35;;;;;;;12.01;87.81;94956.28;5071637;28;20194;-76
2023/10/01 04:00:32;;;;;;;1.13;0.93;;;;;;;11.95;87.59;94952.13;5068665;28;20203;-77
2023/10/01 04:03:00;;;;;;;3.33;2.20;;;;;;;12.04;87.02;94961.03;5070188;28;20620;-77
2023/10/01 04:05:33;;;;;;;5.03;2.55;;;;;;;11.98;86.94;94962.34;5070684;28;20207;-76
2023/10/01 04:08:04;;;;;;;4.03;2.40;;;;;;;11.95;87.34;94963.00;5071134;28;20199;-76
2023/10/01 04:10:35;;;;;;;4.35;2.47;;;;;;;12.08;86.37;94966.59;5070569;28;20214;-76
2023/10/01 04:13:12;;;;;;;2.25;1.48;;;;;;;12.09;86.18;94960.84;5071694;28;20203;-76
2023/10/01 04:15:41;;;;;;;4.15;2.20;;;;;;;12.07;86.39;94957.66;5070487;28;20316;-76
2023/10/01 04:18:21;;;;;;;3.00;1.88;;;;;;;12.12;86.30;94961.31;5070750;28;20210;-77
2023/10/01 04:21:17;;;;;;;4.57;2.00;;;;;;;12.20;85.62;94957.75;5069581;28;20690;-77
2023/10/01 04:23:40;;;;;;;3.60;2.28;;;;;;;12.10;86.22;94964.34;5070314;28;20223;-77
2023/10/01 04:26:13;;;;;;;0.10;0.10;;;;;;;12.07;86.53;94965.81;5070158;28;20194;-77
2023/10/01 04:28:44;;;;;;;1.20;1.15;;;;;;;11.98;87.98;94970.50;5070567;28;20203;-77
2023/10/01 04:31:14;;;;;;;1.00;1.00;;;;;;;12.04;87.81;94977.31;5070436;28;20266;-77
2023/10/01 04:33:45;;;;;;;0.43;0.43;;;;;;;12.12;87.83;94972.19;5070049;28;20199;-77
2023/10/01 04:36:15;;;;;;;2.17;1.00;;;;;;;12.15;87.74;94975.03;5070291;28;20287;-77
2023/10/01 04:38:43;;;;;;;0.75;0.63;;;;;;;12.22;87.60;94977.22;5070616;28;20207;-77
2023/10/01 04:41:16;;;;;;;0.77;0.77;;;;;;;12.29;87.09;94972.06;5070778;28;20202;-77
2023/10/01 04:43:51;;;;;;;0.65;0.65;;;;;;;12.48;86.34;94974.31;5070573;28;20299;-77
2023/10/01 04:46:20;;;;;;;0.20;0.20;;;;;;;13.08;85.09;94979.28;5070422;28;20209;-76
2023/10/01 04:48:48;;;;;;;0.82;0.75;;;;;;;13.96;81.61;94978.78;5070369;28;20215;-76
2023/10/01 04:51:15;;;;;;;0.30;0.30;;;;;;;14.86;77.69;94973.03;5069112;28;20238;-76
2023/10/01 04:53:46;;;;;;;1.85;0.57;;;;;;;15.73;74.21;94971.47;5069630;28;20210;-76
2023/10/01 04:56:20;;;;;;;0.77;0.77;;;;;;;16.46;69.97;94970.91;5070664;28;20191;-77
2023/10/01 04:58:51;;;;;;;0.50;0.50;;;;;;;16.83;66.30;94974.88;5070161;28;20205;-77
2023/10/01 05:01:23;;;;;;;0.30;0.30;;;;;;;16.62;65.38;94974.41;5070155;28;20297;-77
2023/10/01 05:03:52;;;;;;;3.40;1.33;;;;;;;16.66;65.51;94986.25;5070278;28;20560;-77
2023/10/01 05:06:20;;;;;;;0.30;0.30;;;;;;;16.62;64.32;94980.69;5070442;28;20603;-77
2023/10/01 05:08:49;;;;;;;0.63;0.63;;;;;;;16.95;63.60;94979.44;5070185;28;20207;-76
2023/10/01 05:11:21;;;;;;;0.40;0.40;;;;;;;17.33;62.36;94986.88;5069589;28;20242;-77
2023/10/01 05:13:51;;;;;;;0.73;0.73;;;;;;;17.48;61.73;94980.53;5070414;28;20283;-77
2023/10/01 05:16:26;;;;;;;3.17;1.95;;;;;;;18.41;59.43;94986.47;5070148;28;20284;-76
2023/10/01 05:19:09;;;;;;;2.90;1.80;;;;;;;18.17;59.37;94986.84;5066346;28;20786;-76
2023/10/01 05:21:46;;;;;;;2.28;1.60;;;;;;;18.27;59.20;94991.72;5060512;28;20670;-75
2023/10/01 05:24:15;;;;;;;1.00;0.90;;;;;;;18.25;59.28;94988.53;5060859;28;20571;-77
2023/10/01 05:26:44;;;;;;;0.30;0.30;;;;;;;17.98;59.93;94984.16;5062644;28;20225;-76
2023/10/01 05:29:13;;;;;;;0.45;0.45;;;;;;;17.91;59.58;94997.75;5058948;28;20603;-77
2023/10/01 05:31:41;;;;;;;0.40;0.40;;;;;;;17.99;59.45;94996.72;5062121;28;20253;-78
2023/10/01 05:34:08;;;;;;;2.80;1.80;;;;;;;18.53;58.90;94998.38;5058369;28;20192;-78
2023/10/01 05:36:37;;;;;;;0.38;0.38;;;;;;;18.96;57.29;95003.34;5061142;28;20204;-75
2023/10/01 05:39:11;;;;;;;3.20;1.63;;;;;;;19.04;56.23;95002.28;5061158;28;20210;-76
2023/10/01 05:41:44;;;;;;;0.88;0.88;;;;;;;19.42;56.30;95005.88;5057678;28;20229;-76
2023/10/01 05:44:12;;;;;;;2.80;1.30;;;;;;;19.94;53.58;94991.19;5058573;28;20631;-76
2023/10/01 05:46:40;;;;;;;1.52;1.02;;;;;;;19.61;54.43;95003.00;5058277;28;20250;-77
2023/10/01 05:49:08;;;;;;;1.13;1.13;;;;;;;19.98;53.60;94993.94;5060681;28;20587;-75
2023/10/01 05:51:43;;;;;;;1.98;0.40;;;;;;;20.74;52.13;94989.50;5058646;28;20278;-76
2023/10/01 05:54:11;;;;;;;0.40;0.40;;;;;;;20.22;52.84;94993.41;5058019;28;20605;-76
2023/10/01 05:56:44;;;;;;;1.33;0.95;;;;;;;20.40;52.33;94993.56;5059297;28;20997;-75
2023/10/01 05:59:12;;;;;;;1.58;1.23;;;;;;;20.73;51.74;94989.88;5060242;28;20593;-76
2023/10/01 06:01:39;;;;;;;0.45;0.45;;;;;;;21.10;50.98;94990.47;5052231;28;20206;-75
2023/10/01 06:04:12;;;;;;;4.68;0.60;;;;;;;22.03;48.09;94982.56;5054884;28;20223;-75
2023/10/01 06:06:43;;;;;;;0.47;0.47;;;;;;;21.49;49.98;94998.94;5049416;28;20199;-75
2023/10/01 06:09:14;;;;;;;1.38;1.23;;;;;;;21.17;49.85;94992.50;5049262;28;20227;-75
2023/10/01 06:11:51;;;;;;;3.08;1.90;;;;;;;21.85;49.34;94994.34;5045422;28;20600;-77
2023/10/01 06:17:00;;;;;;;2.30;1.48;;;;;;;21.82;48.41;94981.34;5056912;28;20284;-76
2023/10/01 06:19:27;;;;;;;0.55;0.55;;;;;;;21.51;49.98;94995.81;5052056;28;20211;-76
2023/10/01 06:22:12;;;;;;;2.50;1.52;;;;;;;21.54;49.41;94984.00;5059633;28;20627;-76
2023/10/01 06:24:39;;;;;;;3.42;2.05;;;;;;;21.78;49.42;94991.56;5073274;28;20241;-77
2023/10/01 06:27:06;;;;;;;2.55;1.77;;;;;;;21.25;50.49;94983.91;5073151;28;20609;-77
2023/10/01 06:29:49;;;;;;;1.80;1.48;;;;;;;21.12;51.41;94992.84;5056037;28;20203;-76
2023/10/01 06:32:17;;;;;;;0.77;0.73;;;;;;;21.42;50.38;94995.38;5065937;28;20722;-78
2023/10/01 06:34:45;;;;;;;2.42;2.00;;;;;;;22.03;49.47;94999.13;5072280;28;20213;-76
2023/10/01 06:37:12;;;;;;;2.00;0.45;;;;;;;21.68;50.15;94995.09;5071984;28;20283;-75
2023/10/01 06:39:41;;;;;;;0.77;0.77;;;;;;;21.67;50.57;94999.03;5072870;28;20198;-77
2023/10/01 06:42:23;;;;;;;0.60;0.60;;;;;;;21.52;50.65;95003.69;5071678;28;20278;-77
2023/10/01 06:44:54;;;;;;;0.68;0.63;;;;;;;21.32;52.01;95007.16;5073064;28;20574;-77
2023/10/01 06:47:22;;;;;;;0.70;0.70;;;;;;;21.43;51.48;95005.25;5072769;28;20217;-79
2023/10/01 06:50:14;;;;;;;2.17;1.83;;;;;;;21.43;52.14;95005.25;5073279;28;20203;-75
2023/10/01 06:52:42;;;;;;;2.30;1.65;;;;;;;20.97;53.68;95016.78;5072998;28;20251;-77
2023/10/01 06:55:25;;;;;;;6.63;2.72;;;;;;;20.64;54.12;95019.72;5073436;28;20231;-77
2023/10/01 06:57:53;;;;;;;2.10;1.83;;;;;;;21.14;53.86;95016.09;5072525;28;20685;-76
2023/10/01 07:00:23;;;;;;;0.50;0.50;;;;;;;20.93;53.84;95021.47;5072421;28;20298;-75
2023/10/01 07:02:50;;;;;;;0.95;0.80;;;;;;;20.52;55.27;95018.81;5072891;28;20203;-76
2023/10/01 07:05:20;;;;;;;3.08;1.90;;;;;;;20.38;55.99;95024.22;5072965;28;20368;-78
2023/10/01 07:07:48;;;;;;;3.70;1.90;;;;;;;20.08;56.91;95020.78;5073260;28;20650;-75
2023/10/01 07:10:19;;;;;;;0.80;0.80;;;;;;;20.16;57.68;95031.47;5072388;28;20230;-76
2023/10/01 07:12:58;;;;;;;0.52;0.43;;;;;;;20.23;57.74;95025.22;5072709;28;20206;-75
2023/10/01 07:15:26;;;;;;;0.63;0.63;;;;;;;19.92;58.68;95039.47;5072588;28;20253;-76
2023/10/01 07:17:53;;;;;;;0.57;0.57;;;;;;;19.97;59.42;95036.38;5069225;28;20212;-76
2023/10/01 07:20:24;;;;;;;0.20;0.20;;;;;;;19.81;60.31;95034.66;5062402;28;20244;-77
2023/10/01 07:22:54;;;;;;;0.52;0.43;;;;;;;19.50;61.87;95037.81;5063596;28;20215;-77
2023/10/01 07:28:06;;;;;;;1.38;0.70;;;;;;;19.86;61.69;95026.06;5060974;28;20226;-77
2023/10/01 07:30:45;;;;;;;1.23;0.65;;;;;;;19.73;62.11;95032.97;5061588;28;20302;-77
2023/10/01 07:33:14;;;;;;;0.73;0.73;;;;;;;19.64;62.78;95038.00;5063383;28;20190;-76
2023/10/01 07:35:44;;;;;;;1.13;1.02;;;;;;;19.28;63.99;95033.19;5071655;28;20344;-76
2023/10/01 07:38:11;;;;;;;0.82;0.82;;;;;;;19.64;63.48;95034.44;5072297;28;20203;-76
2023/10/01 07:40:57;;;;;;;2.50;1.90;;;;;;;19.48;63.70;95037.38;5071160;28;20203;-75
2023/10/01 07:43:24;;;;;;;2.80;1.02;;;;;;;19.46;64.12;95036.94;5071541;28;20199;-76
2023/10/01 07:46:01;;;;;;;5.63;2.40;;;;;;;19.39;64.36;95039.63;5072242;28;20575;-75
2023/10/01 07:48:29;;;;;;;2.55;1.90;;;;;;;19.47;64.13;95033.03;5072215;28;20606;-75
2023/10/01 07:50:57;;;;;;;0.35;0.35;;;;;;;19.42;64.61;95044.34;5071881;28;20203;-78
2023/10/01 07:53:32;;;;;;;1.00;0.98;;;;;;;19.65;63.91;95042.31;5072147;28;20214;-75
2023/10/01 07:56:02;;;;;;;0.65;0.60;;;;;;;19.87;63.87;95037.84;5072912;28;20237;-77
2023/10/01 08:03:56;;;;;;;1.33;1.23;;;;;;;20.26;62.84;95038.22;5071836;28;20325;-76
2023/10/01 08:06:29;;;;;;;1.35;1.10;;;;;;;20.22;63.23;95038.22;5071593;28;20294;-78
2023/10/01 08:08:58;;;;;;;0.80;0.50;;;;;;;20.01;63.15;95048.19;5071709;28;20282;-77
2023/10/01 08:14:20;;;;;;;1.70;0.90;;;;;;;20.29;62.51;95042.97;5071783;28;20206;-75
2023/10/01 08:16:48;;;;;;;3.00;2.00;;;;;;;20.29;63.32;95042.97;5071340;28;20298;-77
2023/10/01 08:19:20;;;;;;;3.58;2.00;;;;;;;20.56;62.44;95049.13;5071629;28;20203;-80
2023/10/01 08:21:51;;;;;;;4.20;2.47;;;;;;;20.91;62.32;95045.84;5072578;28;20194;-76
2023/10/01 08:24:19;;;;;;;3.60;2.80;;;;;;;20.72;62.31;95048.88;5073417;28;20313;-76
2023/10/01 08:26:57;;;;;;;5.30;2.20;;;;;;;20.37;63.38;95044.63;5071093;28;20202;-75
2023/10/01 08:29:28;;;;;;;1.45;1.05;;;;;;;20.57;62.78;95043.25;5071078;28;20205;-75
2023/10/01 08:32:08;;;;;;;0.95;0.82;;;;;;;20.56;62.39;95038.13;5071041;28;20202;-77
2023/10/01 08:37:22;;;;;;;5.40;2.85;;;;;;;20.79;62.54;95048.91;5071101;28;20281;-75
2023/10/01 08:39:49;;;;;;;6.20;3.22;;;;;;;20.59;63.35;95051.13;5071281;28;20725;-78
2023/10/01 08:42:17;;;;;;;2.50;1.90;;;;;;;20.61;62.77;95042.50;5071370;28;20577;-77
2023/10/01 08:44:47;;;;;;;3.60;2.05;;;;;;;20.42;63.33;95052.56;5070467;28;20237;-76
2023/10/01 08:47:31;;;;;;;4.47;2.75;;;;;;;20.66;63.14;95050.38;5071897;28;20183;-76
2023/10/01 08:50:16;;;;;;;4.28;2.78;;;;;;;20.99;61.45;95036.47;5070652;28;20236;-77
2023/10/01 08:52:52;;;;;;;2.80;2.03;;;;;;;21.26;60.99;95045.31;5071494;28;20191;-74
2023/10/01 08:55:27;;;;;;;1.83;1.35;;;;;;;21.13;61.05;95030.25;5070412;28;20187;-75
2023/10/01 08:57:54;;;;;;;3.25;1.20;;;;;;;21.05;60.74;95028.63;5070614;28;20246;-76
2023/10/01 09:00:24;;;;;;;3.80;1.05;;;;;;;21.07;60.60;95032.56;5070298;28;20306;-74
2023/10/01 09:02:55;;;;;;;1.02;0.82;;;;;;;20.89;61.67;95031.69;5070087;28;20361;-76
2023/10/01 09:05:25;;;;;;;1.25;1.15;;;;;;;20.95;61.23;95035.66;5070279;28;20210;-76
2023/10/01 09:08:15;;;;;;;2.85;1.13;;;;;;;21.21;60.87;95037.41;5070170;28;20210;-75
2023/10/01 09:10:52;;;;;;;1.48;1.13;;;;;;;21.17;59.47;95048.41;5069242;28;20234;-76
2023/10/01 09:13:22;;;;;;;2.80;1.10;;;;;;;21.13;60.07;95044.81;5069161;28;20715;-75
2023/10/01 09:15:54;;;;;;;1.38;0.80;;;;;;;21.25;59.25;95039.00;5070677;28;20279;-76
2023/10/01 09:18:24;;;;;;;0.63;0.63;;;;;;;21.62;58.36;95040.75;5070393;28;20187;-76
2023/10/01 09:21:06;;;;;;;1.75;1.05;;;;;;;21.61;57.02;95033.66;5070197;28;20203;-75
2023/10/01 09:23:56;;;;;;;1.85;0.95;;;;;;;21.55;56.50;95040.72;5069987;28;20210;-78
2023/10/01 09:26:39;;;;;;;4.65;2.33;;;;;;;21.66;56.62;95044.31;5069864;28;20242;-78
2023/10/01 09:29:13;;;;;;;4.88;2.08;;;;;;;21.65;56.85;95045.50;5070700;28;20199;-79
2023/10/01 09:31:57;;;;;;;3.70;2.35;;;;;;;21.97;56.06;95034.56;5070304;28;20207;-78
2023/10/01 09:34:34;;;;;;;0.20;0.20;;;;;;;21.88;56.38;95029.41;5070710;28;20290;-76
2023/10/01 09:37:06;;;;;;;4.07;2.15;;;;;;;22.18;55.92;95039.38;5067560;28;20328;-75
2023/10/01 09:39:41;;;;;;;4.20;1.90;;;;;;;21.97;55.85;95031.81;5066956;28;20297;-75
2023/10/01 09:42:28;;;;;;;4.40;2.33;;;;;;;22.15;55.59;95040.13;5067291;28;20201;-75
2023/10/01 09:45:09;;;;;;;1.00;0.70;;;;;;;21.98;55.62;95042.47;5066960;28;20238;-78
2023/10/01 09:47:37;;;;;;;5.57;2.55;;;;;;;21.73;56.05;95049.09;5062263;28;20203;-76
2023/10/01 09:50:06;;;;;;;1.05;0.57;;;;;;;21.88;55.33;95037.69;5063243;28;20203;-75
2023/10/01 09:52:48;;;;;;;4.95;2.72;;;;;;;21.81;55.42;95043.19;5057686;28;20203;-75
2023/10/01 09:55:26;;;;;;;5.07;2.20;;;;;;;22.08;55.54;95034.63;5056480;28;20195;-77
2023/10/01 09:57:55;;;;;;;7.45;3.63;;;;;;;22.02;53.13;95030.66;5058772;28;20617;-80
2023/10/01 10:00:39;;;;;;;1.10;0.90;;;;;;;21.99;53.81;95032.25;5060425;28;20198;-77
2023/10/01 10:03:11;;;;;;;4.30;2.58;;;;;;;22.18;52.66;95031.09;5070977;28;20187;-75
2023/10/01 10:05:40;;;;;;;3.35;2.10;;;;;;;22.48;52.02;95025.19;5067675;28;20374;-77
2023/10/01 10:08:20;;;;;;;4.25;2.33;;;;;;;22.28;51.78;95019.25;5070162;28;20294;-75
2023/10/01 10:10:52;;;;;;;3.63;1.80;;;;;;;22.24;50.22;95032.28;5069283;28;20288;-77
2023/10/01 10:13:45;;;;;;;5.45;2.03;;;;;;;22.59;50.48;95021.25;5070225;28;20215;-78
2023/10/01 10:16:31;;;;;;;0.40;0.40;;;;;;;22.54;49.79;95015.34;5065880;28;20201;-77
2023/10/01 10:19:04;;;;;;;0.82;0.73;;;;;;;22.31;50.60;95007.44;5059599;28;20199;-78
2023/10/01 10:22:05;;;;;;;2.70;1.92;;;;;;;22.16;49.92;95019.66;5067892;28;20206;-77
2023/10/01 10:24:35;;;;;;;2.28;1.75;;;;;;;21.67;51.45;95020.28;5064795;28;20711;-80
2023/10/01 10:27:08;;;;;;;4.40;2.55;;;;;;;21.50;52.34;95016.28;5066259;28;20210;-76
2023/10/01 10:30:21;;;;;;;2.80;1.98;;;;;;;21.93;51.19;95004.22;5069264;28;20214;-76
2023/10/01 10:33:43;;;;;;;3.10;2.00;;;;;;;22.58;50.20;94997.59;5066719;28;20272;-76
2023/10/01 10:36:53;;;;;;;2.72;1.50;;;;;;;22.77;49.99;94987.34;5064757;28;20199;-76
2023/10/01 10:40:22;;;;;;;3.70;2.13;;;;;;;23.21;49.99;94984.09;5066815;28;20214;-76
2023/10/01 10:43:21;;;;;;;2.90;2.10;;;;;;;23.55;49.29;94981.59;5069387;28;20206;-78
2023/10/01 10:45:58;;;;;;;3.85;2.03;;;;;;;23.73;47.84;94985.09;5067438;28;20211;-75
2023/10/01 10:49:02;;;;;;;3.40;1.83;;;;;;;23.93;47.61;94969.53;5061645;28;20238;-77
2023/10/01 10:51:48;;;;;;;3.03;1.70;;;;;;;24.01;48.42;94982.16;5062091;28;20294;-74
2023/10/01 10:54:29;;;;;;;3.47;1.60;;;;;;;24.39;47.06;94974.00;5057185;28;20724;-78
2023/10/01 10:56:58;;;;;;;1.70;1.33;;;;;;;24.36;46.72;94970.06;5061557;28;20198;-76
2023/10/01 10:59:26;;;;;;;3.15;2.05;;;;;;;24.07;47.46;94969.44;5063788;28;20298;-77
2023/10/01 11:01:58;;;;;;;3.90;2.45;;;;;;;24.54;46.39;94964.38;5051253;28;20222;-74
2023/10/01 11:04:48;;;;;;;4.28;2.58;;;;;;;24.75;47.17;94958.63;5056871;28;20211;-75
2023/10/01 11:07:19;;;;;;;2.80;2.40;;;;;;;24.48;45.38;94966.00;5072826;28;20211;-75
2023/10/01 11:09:54;;;;;;;3.38;2.05;;;;;;;24.80;45.99;94949.88;5070677;28;20298;-77
2023/10/01 11:12:22;;;;;;;3.20;2.40;;;;;;;24.82;45.13;94951.47;5068376;28;20337;-75
2023/10/01 11:15:19;;;;;;;3.92;1.90;;;;;;;23.98;46.27;94948.97;5067573;28;20201;-76
2023/10/01 11:17:47;;;;;;;2.97;1.98;;;;;;;24.79;45.62;94948.31;5051856;28;20205;-78
2023/10/01 11:20:22;;;;;;;4.35;2.50;;;;;;;24.88;46.03;94942.28;5071279;28;20230;-75
2023/10/01 11:22:54;;;;;;;4.75;2.70;;;;;;;24.88;46.04;94944.25;5068812;28;20217;-75
2023/10/01 11:25:25;;;;;;;3.08;2.10;;;;;;;25.04;45.28;94938.97;5072076;28;20509;-75
2023/10/01 11:28:05;;;;;;;3.75;2.67;;;;;;;25.38;44.87;94933.44;5068524;28;20203;-75
2023/10/01 11:30:42;;;;;;;3.97;2.53;;;;;;;25.28;45.06;94928.81;5069842;28;20241;-76
2023/10/01 11:33:29;;;;;;;4.43;2.38;;;;;;;24.90;45.91;94937.09;5069600;28;20203;-75
2023/10/01 11:36:07;;;;;;;2.60;1.88;;;;;;;24.05;47.79;94933.06;5069532;28;20257;-78
2023/10/01 11:38:35;;;;;;;5.70;2.60;;;;;;;23.97;48.53;94936.31;5071286;28;20203;-75
2023/10/01 11:41:09;;;;;;;2.53;2.05;;;;;;;23.58;49.67;94937.34;5067824;28;20207;-75
2023/10/01 11:43:58;;;;;;;3.53;2.15;;;;;;;23.24;50.58;94945.34;5072066;28;20197;-74
2023/10/01 11:46:29;;;;;;;12.27;4.75;;;;;;;23.14;51.51;94950.94;5064842;28;20702;-74
2023/10/01 11:48:57;;;;;;;6.28;2.47;;;;;;;23.00;52.07;94937.94;5068565;28;20223;-76
2023/10/01 11:51:32;;;;;;;5.63;2.53;;;;;;;22.94;51.83;94942.31;5062890;28;20273;-75
2023/10/01 11:54:11;;;;;;;3.42;2.40;;;;;;;22.59;52.55;94946.69;5063174;28;20206;-76
2023/10/01 11:56:41;;;;;;;3.67;2.33;;;;;;;22.41;52.82;94943.19;5065668;28;20202;-78
2023/10/01 11:59:17;;;;;;;3.13;2.42;;;;;;;22.73;52.09;94940.34;5061298;28;20295;-78
2023/10/01 12:01:50;;;;;;;3.80;2.17;;;;;;;23.06;51.90;94930.84;5068303;28;20206;-75
2023/10/01 12:07:15;;;;;;;3.40;2.10;;;;;;;23.69;51.61;94917.91;5044853;28;20704;-75
2023/10/01 12:09:43;;;;;;;3.22;2.42;;;;;;;23.74;50.03;94915.53;5068319;28;20205;-75
2023/10/01 12:12:10;;;;;;;4.95;2.60;;;;;;;23.42;50.17;94919.63;5069041;28;20604;-77
2023/10/01 12:17:31;;;;;;;3.80;2.08;;;;;;;23.44;49.95;94920.00;5083955;27;20555;-74
2023/10/01 12:20:00;;;;;;;4.00;2.17;;;;;;;23.52;50.49;94927.88;5087650;28;20206;-73
2023/10/01 12:22:28;;;;;;;4.60;1.95;;;;;;;22.77;51.33;94918.28;5085778;28;20195;-75
2023/10/01 12:25:00;;;;;;;5.53;1.92;;;;;;;22.88;50.70;94924.56;5081046;28;20198;-78
2023/10/01 12:27:37;;;;;;;3.25;2.00;;;;;;;22.91;51.03;94921.81;5085462;28;20213;-76
2023/10/01 12:30:05;;;;;;;4.60;2.25;;;;;;;23.02;50.73;94916.22;5083940;28;20300;-75